sensor_id;sensor_type;location;lat;lon;timestamp;P1;durP1;ratioP1;P2;durP2;ratioP2
8349;SDS011;60699;48.946;8.412;2024-02-04T00:00:10;3.22;;;2.97;;
8349;SDS011;60699;48.946;8.412;2024-02-04T00:02:39;4.25;;;3.85;;
8349;SDS011;60699;48.946;8.412;2024-02-04T00:05:06;5.15;;;4.00;;
8349;SDS011;60699;48.946;8.412;2024-02-04T00:07:33;3.40;;;3.20;;
8349;SDS011;60699;48.946;8.412;2024-02-04T00:10:00;3.25;;;2.95;;
8349;SDS011;60699;48.946;8.412;2024-02-04T00:12:28;3.65;;;3.33;;
8349;SDS011;60699;48.946;8.412;2024-02-04T00:14:55;3.63;;;3.22;;
8349;SDS011;60699;48.946;8.412;2024-02-04T00:17:22;3.22;;;2.92;;
8349;SDS011;60699;48.946;8.412;2024-02-04T00:19:56;2.30;;;2.20;;
8349;SDS011;60699;48.946;8.412;2024-02-04T00:22:23;2.28;;;2.13;;
8349;SDS011;60699;48.946;8.412;2024-02-04T00:24:50;2.25;;;2.05;;
8349;SDS011;60699;48.946;8.412;2024-02-04T00:27:17;2.15;;;1.95;;
8349;SDS011;60699;48.946;8.412;2024-02-04T00:29:44;2.75;;;1.70;;
8349;SDS011;60699;48.946;8.412;2024-02-04T00:32:11;1.80;;;1.70;;
8349;SDS011;60699;48.946;8.412;2024-02-04T00:34:38;1.52;;;1.42;;
8349;SDS011;60699;48.946;8.412;2024-02-04T00:37:07;1.80;;;1.70;;
8349;SDS011;60699;48.946;8.412;2024-02-04T00:39:34;1.92;;;1.83;;
8349;SDS011;60699;48.946;8.412;2024-02-04T00:42:01;2.28;;;2.08;;
8349;SDS011;60699;48.946;8.412;2024-02-04T00:44:28;2.17;;;1.95;;
8349;SDS011;60699;48.946;8.412;2024-02-04T00:46:55;2.40;;;2.20;;
8349;SDS011;60699;48.946;8.412;2024-02-04T00:49:22;1.98;;;1.88;;
8349;SDS011;60699;48.946;8.412;2024-02-04T00:51:49;1.65;;;1.52;;
8349;SDS011;60699;48.946;8.412;2024-02-04T00:54:17;1.63;;;1.52;;
8349;SDS011;60699;48.946;8.412;2024-02-04T00:56:44;1.90;;;1.80;;
8349;SDS011;60699;48.946;8.412;2024-02-04T00:59:11;1.70;;;1.60;;
8349;SDS011;60699;48.946;8.412;2024-02-04T01:01:39;1.70;;;1.60;;
8349;SDS011;60699;48.946;8.412;2024-02-04T01:04:07;1.60;;;1.50;;
8349;SDS011;60699;48.946;8.412;2024-02-04T01:06:34;1.48;;;1.38;;
8349;SDS011;60699;48.946;8.412;2024-02-04T01:09:01;2.08;;;1.92;;
8349;SDS011;60699;48.946;8.412;2024-02-04T01:11:29;2.17;;;1.67;;
8349;SDS011;60699;48.946;8.412;2024-02-04T01:13:56;1.70;;;1.60;;
8349;SDS011;60699;48.946;8.412;2024-02-04T01:16:23;2.00;;;1.90;;
8349;SDS011;60699;48.946;8.412;2024-02-04T01:18:51;1.33;;;1.30;;
8349;SDS011;60699;48.946;8.412;2024-02-04T01:21:18;3.83;;;1.63;;
8349;SDS011;60699;48.946;8.412;2024-02-04T01:23:45;1.88;;;1.77;;
8349;SDS011;60699;48.946;8.412;2024-02-04T01:26:12;1.70;;;1.60;;
8349;SDS011;60699;48.946;8.412;2024-02-04T01:28:41;1.85;;;1.75;;
8349;SDS011;60699;48.946;8.412;2024-02-04T01:31:08;1.50;;;1.40;;
8349;SDS011;60699;48.946;8.412;2024-02-04T01:33:35;2.10;;;1.50;;
8349;SDS011;60699;48.946;8.412;2024-02-04T01:36:03;2.10;;;1.90;;
8349;SDS011;60699;48.946;8.412;2024-02-04T01:38:30;1.58;;;1.48;;
8349;SDS011;60699;48.946;8.412;2024-02-04T01:40:57;1.73;;;1.63;;
8349;SDS011;60699;48.946;8.412;2024-02-04T01:43:24;2.33;;;2.20;;
8349;SDS011;60699;48.946;8.412;2024-02-04T01:45:52;1.90;;;1.80;;
8349;SDS011;60699;48.946;8.412;2024-02-04T01:48:19;2.08;;;1.98;;
8349;SDS011;60699;48.946;8.412;2024-02-04T01:50:46;1.90;;;1.80;;
8349;SDS011;60699;48.946;8.412;2024-02-04T01:53:14;1.90;;;1.80;;
8349;SDS011;60699;48.946;8.412;2024-02-04T01:55:41;2.55;;;2.35;;
8349;SDS011;60699;48.946;8.412;2024-02-04T01:58:08;2.20;;;2.10;;
8349;SDS011;60699;48.946;8.412;2024-02-04T02:00:36;1.67;;;1.58;;
8349;SDS011;60699;48.946;8.412;2024-02-04T02:03:05;3.70;;;1.73;;
8349;SDS011;60699;48.946;8.412;2024-02-04T02:05:32;1.90;;;1.80;;
8349;SDS011;60699;48.946;8.412;2024-02-04T02:07:59;2.10;;;1.70;;
8349;SDS011;60699;48.946;8.412;2024-02-04T02:10:26;2.08;;;1.92;;
8349;SDS011;60699;48.946;8.412;2024-02-04T02:12:55;2.08;;;1.98;;
8349;SDS011;60699;48.946;8.412;2024-02-04T02:15:24;2.10;;;1.92;;
8349;SDS011;60699;48.946;8.412;2024-02-04T02:17:52;2.20;;;1.88;;
8349;SDS011;60699;48.946;8.412;2024-02-04T02:20:23;2.13;;;1.90;;
8349;SDS011;60699;48.946;8.412;2024-02-04T02:22:51;3.60;;;1.60;;
8349;SDS011;60699;48.946;8.412;2024-02-04T02:25:27;2.10;;;2.00;;
8349;SDS011;60699;48.946;8.412;2024-02-04T02:27:54;2.28;;;2.10;;
8349;SDS011;60699;48.946;8.412;2024-02-04T02:30:21;1.85;;;1.75;;
8349;SDS011;60699;48.946;8.412;2024-02-04T02:32:48;1.73;;;1.63;;
8349;SDS011;60699;48.946;8.412;2024-02-04T02:35:16;1.60;;;1.50;;
8349;SDS011;60699;48.946;8.412;2024-02-04T02:37:44;2.38;;;2.03;;
8349;SDS011;60699;48.946;8.412;2024-02-04T02:40:14;1.90;;;1.80;;
8349;SDS011;60699;48.946;8.412;2024-02-04T02:42:44;2.08;;;1.70;;
8349;SDS011;60699;48.946;8.412;2024-02-04T02:45:13;2.35;;;2.20;;
8349;SDS011;60699;48.946;8.412;2024-02-04T02:47:40;2.20;;;2.00;;
8349;SDS011;60699;48.946;8.412;2024-02-04T02:50:07;2.88;;;1.85;;
8349;SDS011;60699;48.946;8.412;2024-02-04T02:52:35;2.42;;;2.20;;
8349;SDS011;60699;48.946;8.412;2024-02-04T02:55:02;1.80;;;1.70;;
8349;SDS011;60699;48.946;8.412;2024-02-04T02:57:30;1.75;;;1.65;;
8349;SDS011;60699;48.946;8.412;2024-02-04T02:59:58;1.88;;;1.67;;
8349;SDS011;60699;48.946;8.412;2024-02-04T03:02:25;1.63;;;1.52;;
8349;SDS011;60699;48.946;8.412;2024-02-04T03:04:52;1.95;;;1.85;;
8349;SDS011;60699;48.946;8.412;2024-02-04T03:07:19;2.83;;;1.90;;
8349;SDS011;60699;48.946;8.412;2024-02-04T03:09:47;2.25;;;2.00;;
8349;SDS011;60699;48.946;8.412;2024-02-04T03:12:14;2.40;;;1.88;;
8349;SDS011;60699;48.946;8.412;2024-02-04T03:14:41;1.70;;;1.60;;
8349;SDS011;60699;48.946;8.412;2024-02-04T03:17:09;1.90;;;1.80;;
8349;SDS011;60699;48.946;8.412;2024-02-04T03:19:37;1.88;;;1.70;;
8349;SDS011;60699;48.946;8.412;2024-02-04T03:22:04;2.05;;;1.95;;
8349;SDS011;60699;48.946;8.412;2024-02-04T03:24:31;2.20;;;2.10;;
8349;SDS011;60699;48.946;8.412;2024-02-04T03:26:58;1.95;;;1.85;;
8349;SDS011;60699;48.946;8.412;2024-02-04T03:29:25;2.25;;;2.05;;
8349;SDS011;60699;48.946;8.412;2024-02-04T03:31:52;1.70;;;1.60;;
8349;SDS011;60699;48.946;8.412;2024-02-04T03:34:22;3.25;;;1.70;;
8349;SDS011;60699;48.946;8.412;2024-02-04T03:36:49;3.08;;;2.33;;
8349;SDS011;60699;48.946;8.412;2024-02-04T03:39:16;1.92;;;1.83;;
8349;SDS011;60699;48.946;8.412;2024-02-04T03:41:42;2.70;;;2.50;;
8349;SDS011;60699;48.946;8.412;2024-02-04T03:44:10;2.22;;;2.05;;
8349;SDS011;60699;48.946;8.412;2024-02-04T03:46:36;1.52;;;1.40;;
8349;SDS011;60699;48.946;8.412;2024-02-04T03:49:05;2.05;;;1.95;;
8349;SDS011;60699;48.946;8.412;2024-02-04T03:51:33;1.60;;;1.50;;
8349;SDS011;60699;48.946;8.412;2024-02-04T03:54:00;1.42;;;1.33;;
8349;SDS011;60699;48.946;8.412;2024-02-04T03:56:27;1.42;;;1.30;;
8349;SDS011;60699;48.946;8.412;2024-02-04T03:58:55;1.83;;;1.70;;
8349;SDS011;60699;48.946;8.412;2024-02-04T04:01:23;1.48;;;1.38;;
8349;SDS011;60699;48.946;8.412;2024-02-04T04:03:50;1.60;;;1.50;;
8349;SDS011;60699;48.946;8.412;2024-02-04T04:06:17;1.90;;;1.42;;
8349;SDS011;60699;48.946;8.412;2024-02-04T04:08:45;1.50;;;1.40;;
8349;SDS011;60699;48.946;8.412;2024-02-04T04:11:12;1.40;;;1.30;;
8349;SDS011;60699;48.946;8.412;2024-02-04T04:13:39;1.75;;;1.65;;
8349;SDS011;60699;48.946;8.412;2024-02-04T04:16:06;1.80;;;1.70;;
8349;SDS011;60699;48.946;8.412;2024-02-04T04:18:33;3.53;;;1.80;;
8349;SDS011;60699;48.946;8.412;2024-02-04T04:21:00;1.52;;;1.42;;
8349;SDS011;60699;48.946;8.412;2024-02-04T04:23:28;1.60;;;1.50;;
8349;SDS011;60699;48.946;8.412;2024-02-04T04:25:56;1.80;;;1.70;;
8349;SDS011;60699;48.946;8.412;2024-02-04T04:28:23;3.03;;;2.83;;
8349;SDS011;60699;48.946;8.412;2024-02-04T04:30:50;1.52;;;1.42;;
8349;SDS011;60699;48.946;8.412;2024-02-04T04:33:17;1.88;;;1.75;;
8349;SDS011;60699;48.946;8.412;2024-02-04T04:35:45;1.98;;;1.73;;
8349;SDS011;60699;48.946;8.412;2024-02-04T04:38:12;2.20;;;1.60;;
8349;SDS011;60699;48.946;8.412;2024-02-04T04:40:39;3.28;;;1.70;;
8349;SDS011;60699;48.946;8.412;2024-02-04T04:43:07;1.45;;;1.35;;
8349;SDS011;60699;48.946;8.412;2024-02-04T04:45:34;1.73;;;1.63;;
8349;SDS011;60699;48.946;8.412;2024-02-04T04:48:02;1.60;;;1.50;;
8349;SDS011;60699;48.946;8.412;2024-02-04T04:50:29;2.10;;;1.70;;
8349;SDS011;60699;48.946;8.412;2024-02-04T04:52:56;1.50;;;1.40;;
8349;SDS011;60699;48.946;8.412;2024-02-04T04:55:23;2.20;;;1.63;;
8349;SDS011;60699;48.946;8.412;2024-02-04T04:57:50;6.57;;;1.92;;
8349;SDS011;60699;48.946;8.412;2024-02-04T05:00:19;2.00;;;1.90;;
8349;SDS011;60699;48.946;8.412;2024-02-04T05:02:46;2.00;;;1.80;;
8349;SDS011;60699;48.946;8.412;2024-02-04T05:05:13;1.92;;;1.83;;
8349;SDS011;60699;48.946;8.412;2024-02-04T05:07:40;1.90;;;1.80;;
8349;SDS011;60699;48.946;8.412;2024-02-04T05:10:07;1.90;;;1.80;;
8349;SDS011;60699;48.946;8.412;2024-02-04T05:12:35;2.80;;;1.83;;
8349;SDS011;60699;48.946;8.412;2024-02-04T05:15:03;1.88;;;1.77;;
8349;SDS011;60699;48.946;8.412;2024-02-04T05:17:31;3.35;;;2.13;;
8349;SDS011;60699;48.946;8.412;2024-02-04T05:19:58;3.78;;;1.80;;
8349;SDS011;60699;48.946;8.412;2024-02-04T05:22:27;2.55;;;1.90;;
8349;SDS011;60699;48.946;8.412;2024-02-04T05:24:54;2.55;;;1.60;;
8349;SDS011;60699;48.946;8.412;2024-02-04T05:27:21;2.70;;;2.50;;
8349;SDS011;60699;48.946;8.412;2024-02-04T05:29:48;2.22;;;1.83;;
8349;SDS011;60699;48.946;8.412;2024-02-04T05:32:15;1.70;;;1.60;;
8349;SDS011;60699;48.946;8.412;2024-02-04T05:34:43;2.00;;;1.90;;
8349;SDS011;60699;48.946;8.412;2024-02-04T05:37:10;1.80;;;1.70;;
8349;SDS011;60699;48.946;8.412;2024-02-04T05:39:37;2.40;;;2.20;;
8349;SDS011;60699;48.946;8.412;2024-02-04T05:42:04;2.10;;;2.00;;
8349;SDS011;60699;48.946;8.412;2024-02-04T05:44:31;1.80;;;1.70;;
8349;SDS011;60699;48.946;8.412;2024-02-04T05:46:58;2.13;;;1.90;;
8349;SDS011;60699;48.946;8.412;2024-02-04T05:49:25;1.90;;;1.80;;
8349;SDS011;60699;48.946;8.412;2024-02-04T05:51:54;1.80;;;1.70;;
8349;SDS011;60699;48.946;8.412;2024-02-04T05:54:20;2.00;;;1.77;;
8349;SDS011;60699;48.946;8.412;2024-02-04T05:56:48;2.28;;;1.88;;
8349;SDS011;60699;48.946;8.412;2024-02-04T05:59:15;1.95;;;1.85;;
8349;SDS011;60699;48.946;8.412;2024-02-04T06:01:42;2.17;;;1.75;;
8349;SDS011;60699;48.946;8.412;2024-02-04T06:04:09;2.42;;;2.22;;
8349;SDS011;60699;48.946;8.412;2024-02-04T06:06:36;2.35;;;2.15;;
8349;SDS011;60699;48.946;8.412;2024-02-04T06:09:05;1.85;;;1.75;;
8349;SDS011;60699;48.946;8.412;2024-02-04T06:11:33;2.03;;;1.90;;
8349;SDS011;60699;48.946;8.412;2024-02-04T06:14:00;1.85;;;1.75;;
8349;SDS011;60699;48.946;8.412;2024-02-04T06:16:27;2.15;;;1.95;;
8349;SDS011;60699;48.946;8.412;2024-02-04T06:18:54;2.42;;;2.22;;
8349;SDS011;60699;48.946;8.412;2024-02-04T06:21:23;2.03;;;1.63;;
8349;SDS011;60699;48.946;8.412;2024-02-04T06:23:50;1.60;;;1.50;;
8349;SDS011;60699;48.946;8.412;2024-02-04T06:26:18;1.80;;;1.70;;
8349;SDS011;60699;48.946;8.412;2024-02-04T06:28:45;1.90;;;1.80;;
8349;SDS011;60699;48.946;8.412;2024-02-04T06:31:14;1.80;;;1.67;;
8349;SDS011;60699;48.946;8.412;2024-02-04T06:33:41;1.70;;;1.60;;
8349;SDS011;60699;48.946;8.412;2024-02-04T06:36:08;1.73;;;1.63;;
8349;SDS011;60699;48.946;8.412;2024-02-04T06:38:35;2.03;;;1.90;;
8349;SDS011;60699;48.946;8.412;2024-02-04T06:41:03;1.83;;;1.73;;
8349;SDS011;60699;48.946;8.412;2024-02-04T06:43:31;1.85;;;1.60;;
8349;SDS011;60699;48.946;8.412;2024-02-04T06:45:58;2.35;;;1.88;;
8349;SDS011;60699;48.946;8.412;2024-02-04T06:48:25;2.05;;;1.92;;
8349;SDS011;60699;48.946;8.412;2024-02-04T06:50:52;1.95;;;1.70;;
8349;SDS011;60699;48.946;8.412;2024-02-04T06:53:19;2.13;;;1.92;;
8349;SDS011;60699;48.946;8.412;2024-02-04T06:55:46;1.95;;;1.85;;
8349;SDS011;60699;48.946;8.412;2024-02-04T06:58:13;2.03;;;1.92;;
8349;SDS011;60699;48.946;8.412;2024-02-04T07:00:41;2.00;;;1.90;;
8349;SDS011;60699;48.946;8.412;2024-02-04T07:03:08;2.30;;;2.10;;
8349;SDS011;60699;48.946;8.412;2024-02-04T07:05:36;2.03;;;1.92;;
8349;SDS011;60699;48.946;8.412;2024-02-04T07:08:03;1.95;;;1.85;;
8349;SDS011;60699;48.946;8.412;2024-02-04T07:10:30;1.90;;;1.80;;
8349;SDS011;60699;48.946;8.412;2024-02-04T07:12:57;2.35;;;2.25;;
8349;SDS011;60699;48.946;8.412;2024-02-04T07:15:24;4.70;;;2.53;;
8349;SDS011;60699;48.946;8.412;2024-02-04T07:17:52;1.73;;;1.63;;
8349;SDS011;60699;48.946;8.412;2024-02-04T07:20:19;1.60;;;1.50;;
8349;SDS011;60699;48.946;8.412;2024-02-04T07:22:47;2.15;;;2.00;;
8349;SDS011;60699;48.946;8.412;2024-02-04T07:25:14;2.78;;;2.22;;
8349;SDS011;60699;48.946;8.412;2024-02-04T07:27:41;2.33;;;1.40;;
8349;SDS011;60699;48.946;8.412;2024-02-04T07:30:08;1.70;;;1.60;;
8349;SDS011;60699;48.946;8.412;2024-02-04T07:32:35;1.73;;;1.63;;
8349;SDS011;60699;48.946;8.412;2024-02-04T07:35:04;2.20;;;1.88;;
8349;SDS011;60699;48.946;8.412;2024-02-04T07:37:31;1.20;;;1.20;;
8349;SDS011;60699;48.946;8.412;2024-02-04T07:39:58;1.40;;;1.30;;
8349;SDS011;60699;48.946;8.412;2024-02-04T07:42:25;1.38;;;1.33;;
8349;SDS011;60699;48.946;8.412;2024-02-04T07:44:52;1.40;;;1.30;;
8349;SDS011;60699;48.946;8.412;2024-02-04T07:47:19;1.40;;;1.30;;
8349;SDS011;60699;48.946;8.412;2024-02-04T07:49:47;1.63;;;1.40;;
8349;SDS011;60699;48.946;8.412;2024-02-04T07:52:15;1.50;;;1.40;;
8349;SDS011;60699;48.946;8.412;2024-02-04T07:54:42;1.52;;;1.42;;
8349;SDS011;60699;48.946;8.412;2024-02-04T07:57:10;1.35;;;1.25;;
8349;SDS011;60699;48.946;8.412;2024-02-04T07:59:37;1.38;;;1.27;;
8349;SDS011;60699;48.946;8.412;2024-02-04T08:02:04;1.85;;;1.40;;
8349;SDS011;60699;48.946;8.412;2024-02-04T08:04:32;1.60;;;1.50;;
8349;SDS011;60699;48.946;8.412;2024-02-04T08:06:59;1.77;;;1.67;;
8349;SDS011;60699;48.946;8.412;2024-02-04T08:09:27;1.50;;;1.40;;
8349;SDS011;60699;48.946;8.412;2024-02-04T08:11:54;1.50;;;1.40;;
8349;SDS011;60699;48.946;8.412;2024-02-04T08:14:21;1.65;;;1.20;;
8349;SDS011;60699;48.946;8.412;2024-02-04T08:16:49;2.13;;;1.92;;
8349;SDS011;60699;48.946;8.412;2024-02-04T08:19:16;1.83;;;1.40;;
8349;SDS011;60699;48.946;8.412;2024-02-04T08:21:43;3.92;;;1.52;;
8349;SDS011;60699;48.946;8.412;2024-02-04T08:24:10;1.60;;;1.50;;
8349;SDS011;60699;48.946;8.412;2024-02-04T08:26:38;1.60;;;1.50;;
8349;SDS011;60699;48.946;8.412;2024-02-04T08:29:05;2.17;;;1.42;;
8349;SDS011;60699;48.946;8.412;2024-02-04T08:31:32;1.10;;;1.10;;
8349;SDS011;60699;48.946;8.412;2024-02-04T08:33:59;1.70;;;1.60;;
8349;SDS011;60699;48.946;8.412;2024-02-04T08:36:27;1.83;;;1.30;;
8349;SDS011;60699;48.946;8.412;2024-02-04T08:38:55;1.60;;;1.50;;
8349;SDS011;60699;48.946;8.412;2024-02-04T08:41:22;1.85;;;1.33;;
8349;SDS011;60699;48.946;8.412;2024-02-04T08:43:51;1.20;;;1.20;;
8349;SDS011;60699;48.946;8.412;2024-02-04T08:46:18;1.27;;;1.17;;
8349;SDS011;60699;48.946;8.412;2024-02-04T08:48:45;1.63;;;1.52;;
8349;SDS011;60699;48.946;8.412;2024-02-04T08:51:12;1.20;;;1.20;;
8349;SDS011;60699;48.946;8.412;2024-02-04T08:53:41;1.33;;;1.30;;
8349;SDS011;60699;48.946;8.412;2024-02-04T08:56:08;1.40;;;1.30;;
8349;SDS011;60699;48.946;8.412;2024-02-04T08:58:35;1.13;;;1.13;;
8349;SDS011;60699;48.946;8.412;2024-02-04T09:01:03;1.27;;;1.20;;
8349;SDS011;60699;48.946;8.412;2024-02-04T09:03:31;1.13;;;1.13;;
8349;SDS011;60699;48.946;8.412;2024-02-04T09:05:58;1.13;;;1.13;;
8349;SDS011;60699;48.946;8.412;2024-02-04T09:08:25;1.80;;;1.70;;
8349;SDS011;60699;48.946;8.412;2024-02-04T09:10:52;1.33;;;1.20;;
8349;SDS011;60699;48.946;8.412;2024-02-04T09:13:19;1.20;;;1.20;;
8349;SDS011;60699;48.946;8.412;2024-02-04T09:15:46;1.40;;;1.30;;
8349;SDS011;60699;48.946;8.412;2024-02-04T09:18:15;1.70;;;1.38;;
8349;SDS011;60699;48.946;8.412;2024-02-04T09:20:42;1.20;;;1.20;;
8349;SDS011;60699;48.946;8.412;2024-02-04T09:23:09;1.30;;;1.20;;
8349;SDS011;60699;48.946;8.412;2024-02-04T09:25:36;1.42;;;1.30;;
8349;SDS011;60699;48.946;8.412;2024-02-04T09:28:03;1.20;;;1.20;;
8349;SDS011;60699;48.946;8.412;2024-02-04T09:30:30;1.20;;;1.10;;
8349;SDS011;60699;48.946;8.412;2024-02-04T09:32:57;1.42;;;1.33;;
8349;SDS011;60699;48.946;8.412;2024-02-04T09:35:25;1.10;;;1.10;;
8349;SDS011;60699;48.946;8.412;2024-02-04T09:37:52;1.50;;;1.40;;
8349;SDS011;60699;48.946;8.412;2024-02-04T09:40:19;1.63;;;1.20;;
8349;SDS011;60699;48.946;8.412;2024-02-04T09:42:46;1.30;;;1.20;;
8349;SDS011;60699;48.946;8.412;2024-02-04T09:45:13;1.30;;;1.20;;
8349;SDS011;60699;48.946;8.412;2024-02-04T09:47:42;2.28;;;1.40;;
8349;SDS011;60699;48.946;8.412;2024-02-04T09:50:09;1.83;;;1.38;;
8349;SDS011;60699;48.946;8.412;2024-02-04T09:52:39;1.20;;;1.10;;
8349;SDS011;60699;48.946;8.412;2024-02-04T09:55:06;1.20;;;1.10;;
8349;SDS011;60699;48.946;8.412;2024-02-04T09:57:34;1.92;;;1.50;;
8349;SDS011;60699;48.946;8.412;2024-02-04T10:00:02;1.30;;;1.20;;
8349;SDS011;60699;48.946;8.412;2024-02-04T10:02:29;1.50;;;1.40;;
8349;SDS011;60699;48.946;8.412;2024-02-04T10:04:57;1.63;;;1.50;;
8349;SDS011;60699;48.946;8.412;2024-02-04T10:07:24;2.15;;;1.70;;
8349;SDS011;60699;48.946;8.412;2024-02-04T10:09:53;7.55;;;5.30;;
8349;SDS011;60699;48.946;8.412;2024-02-04T10:12:20;2.75;;;2.55;;
8349;SDS011;60699;48.946;8.412;2024-02-04T10:14:48;1.65;;;1.55;;
8349;SDS011;60699;48.946;8.412;2024-02-04T10:17:15;1.80;;;1.70;;
8349;SDS011;60699;48.946;8.412;2024-02-04T10:19:42;1.48;;;1.38;;
8349;SDS011;60699;48.946;8.412;2024-02-04T10:22:09;2.08;;;1.50;;
8349;SDS011;60699;48.946;8.412;2024-02-04T10:24:36;1.95;;;1.73;;
8349;SDS011;60699;48.946;8.412;2024-02-04T10:27:05;1.58;;;1.48;;
8349;SDS011;60699;48.946;8.412;2024-02-04T10:29:32;2.35;;;1.42;;
8349;SDS011;60699;48.946;8.412;2024-02-04T10:31:59;1.40;;;1.30;;
8349;SDS011;60699;48.946;8.412;2024-02-04T10:34:26;1.08;;;1.08;;
8349;SDS011;60699;48.946;8.412;2024-02-04T10:36:55;1.17;;;1.17;;
8349;SDS011;60699;48.946;8.412;2024-02-04T10:39:22;1.30;;;1.20;;
8349;SDS011;60699;48.946;8.412;2024-02-04T10:41:50;1.40;;;1.30;;
8349;SDS011;60699;48.946;8.412;2024-02-04T10:44:20;1.10;;;1.10;;
8349;SDS011;60699;48.946;8.412;2024-02-04T10:46:47;1.33;;;1.23;;
8349;SDS011;60699;48.946;8.412;2024-02-04T10:49:15;1.10;;;1.10;;
8349;SDS011;60699;48.946;8.412;2024-02-04T10:51:43;1.25;;;1.20;;
8349;SDS011;60699;48.946;8.412;2024-02-04T10:54:11;1.10;;;1.10;;
8349;SDS011;60699;48.946;8.412;2024-02-04T10:56:42;1.10;;;1.10;;
8349;SDS011;60699;48.946;8.412;2024-02-04T10:59:09;1.50;;;1.40;;
8349;SDS011;60699;48.946;8.412;2024-02-04T11:01:39;1.20;;;1.10;;
8349;SDS011;60699;48.946;8.412;2024-02-04T11:04:06;1.30;;;1.20;;
8349;SDS011;60699;48.946;8.412;2024-02-04T11:06:35;1.50;;;1.40;;
8349;SDS011;60699;48.946;8.412;2024-02-04T11:09:02;1.05;;;1.05;;
8349;SDS011;60699;48.946;8.412;2024-02-04T11:11:30;1.50;;;1.40;;
8349;SDS011;60699;48.946;8.412;2024-02-04T11:13:58;1.42;;;1.33;;
8349;SDS011;60699;48.946;8.412;2024-02-04T11:16:30;1.40;;;1.30;;
8349;SDS011;60699;48.946;8.412;2024-02-04T11:19:03;1.50;;;1.40;;
8349;SDS011;60699;48.946;8.412;2024-02-04T11:21:39;1.60;;;1.50;;
8349;SDS011;60699;48.946;8.412;2024-02-04T11:24:13;1.27;;;1.20;;
8349;SDS011;60699;48.946;8.412;2024-02-04T11:26:44;1.50;;;1.40;;
8349;SDS011;60699;48.946;8.412;2024-02-04T11:29:11;4.20;;;1.52;;
8349;SDS011;60699;48.946;8.412;2024-02-04T11:31:39;1.50;;;1.40;;
8349;SDS011;60699;48.946;8.412;2024-02-04T11:34:07;2.10;;;1.48;;
8349;SDS011;60699;48.946;8.412;2024-02-04T11:36:37;1.73;;;1.63;;
8349;SDS011;60699;48.946;8.412;2024-02-04T11:39:11;1.60;;;1.50;;
8349;SDS011;60699;48.946;8.412;2024-02-04T11:41:44;1.50;;;1.40;;
8349;SDS011;60699;48.946;8.412;2024-02-04T11:44:11;1.50;;;1.40;;
8349;SDS011;60699;48.946;8.412;2024-02-04T11:46:38;1.70;;;1.60;;
8349;SDS011;60699;48.946;8.412;2024-02-04T11:49:15;1.65;;;1.52;;
8349;SDS011;60699;48.946;8.412;2024-02-04T11:51:44;1.42;;;1.35;;
8349;SDS011;60699;48.946;8.412;2024-02-04T11:54:13;2.08;;;1.88;;
8349;SDS011;60699;48.946;8.412;2024-02-04T11:56:41;1.60;;;1.50;;
8349;SDS011;60699;48.946;8.412;2024-02-04T11:59:08;1.77;;;1.63;;
8349;SDS011;60699;48.946;8.412;2024-02-04T12:01:35;1.52;;;1.40;;
8349;SDS011;60699;48.946;8.412;2024-02-04T12:04:09;1.50;;;1.40;;
8349;SDS011;60699;48.946;8.412;2024-02-04T12:06:37;1.55;;;1.45;;
8349;SDS011;60699;48.946;8.412;2024-02-04T12:09:05;1.40;;;1.30;;
8349;SDS011;60699;48.946;8.412;2024-02-04T12:11:32;1.20;;;1.20;;
8349;SDS011;60699;48.946;8.412;2024-02-04T12:14:00;1.38;;;1.27;;
8349;SDS011;60699;48.946;8.412;2024-02-04T12:16:28;1.80;;;1.70;;
8349;SDS011;60699;48.946;8.412;2024-02-04T12:18:55;1.50;;;1.40;;
8349;SDS011;60699;48.946;8.412;2024-02-04T12:21:22;1.52;;;1.42;;
8349;SDS011;60699;48.946;8.412;2024-02-04T12:23:51;1.48;;;1.38;;
8349;SDS011;60699;48.946;8.412;2024-02-04T12:26:18;1.50;;;1.35;;
8349;SDS011;60699;48.946;8.412;2024-02-04T12:28:45;1.55;;;1.45;;
8349;SDS011;60699;48.946;8.412;2024-02-04T12:31:18;1.95;;;1.85;;
8349;SDS011;60699;48.946;8.412;2024-02-04T12:33:52;2.30;;;1.55;;
8349;SDS011;60699;48.946;8.412;2024-02-04T12:36:22;1.50;;;1.40;;
8349;SDS011;60699;48.946;8.412;2024-02-04T12:38:54;1.60;;;1.50;;
8349;SDS011;60699;48.946;8.412;2024-02-04T12:41:21;3.63;;;1.30;;
8349;SDS011;60699;48.946;8.412;2024-02-04T12:43:52;1.60;;;1.50;;
8349;SDS011;60699;48.946;8.412;2024-02-04T12:46:19;1.60;;;1.50;;
8349;SDS011;60699;48.946;8.412;2024-02-04T12:48:50;1.20;;;1.20;;
8349;SDS011;60699;48.946;8.412;2024-02-04T12:51:23;1.60;;;1.50;;
8349;SDS011;60699;48.946;8.412;2024-02-04T12:53:50;1.50;;;1.40;;
8349;SDS011;60699;48.946;8.412;2024-02-04T12:56:18;1.58;;;1.45;;
8349;SDS011;60699;48.946;8.412;2024-02-04T12:58:45;1.60;;;1.50;;
8349;SDS011;60699;48.946;8.412;2024-02-04T13:01:12;1.70;;;1.60;;
8349;SDS011;60699;48.946;8.412;2024-02-04T13:03:39;1.63;;;1.42;;
8349;SDS011;60699;48.946;8.412;2024-02-04T13:06:06;1.60;;;1.50;;
8349;SDS011;60699;48.946;8.412;2024-02-04T13:08:33;1.63;;;1.30;;
8349;SDS011;60699;48.946;8.412;2024-02-04T13:11:00;1.30;;;1.30;;
8349;SDS011;60699;48.946;8.412;2024-02-04T13:13:29;1.38;;;1.10;;
8349;SDS011;60699;48.946;8.412;2024-02-04T13:15:56;1.50;;;1.40;;
8349;SDS011;60699;48.946;8.412;2024-02-04T13:18:23;1.70;;;1.60;;
8349;SDS011;60699;48.946;8.412;2024-02-04T13:20:50;2.28;;;2.08;;
8349;SDS011;60699;48.946;8.412;2024-02-04T13:23:17;1.45;;;1.30;;
8349;SDS011;60699;48.946;8.412;2024-02-04T13:25:44;1.50;;;1.40;;
8349;SDS011;60699;48.946;8.412;2024-02-04T13:28:12;1.70;;;1.60;;
8349;SDS011;60699;48.946;8.412;2024-02-04T13:30:40;1.70;;;1.60;;
8349;SDS011;60699;48.946;8.412;2024-02-04T13:33:07;1.90;;;1.60;;
8349;SDS011;60699;48.946;8.412;2024-02-04T13:35:34;1.55;;;1.40;;
8349;SDS011;60699;48.946;8.412;2024-02-04T13:38:01;1.50;;;1.40;;
8349;SDS011;60699;48.946;8.412;2024-02-04T13:40:30;2.17;;;1.40;;
8349;SDS011;60699;48.946;8.412;2024-02-04T13:42:58;2.10;;;1.73;;
8349;SDS011;60699;48.946;8.412;2024-02-04T13:45:25;2.75;;;2.10;;
8349;SDS011;60699;48.946;8.412;2024-02-04T13:47:53;2.22;;;1.60;;
8349;SDS011;60699;48.946;8.412;2024-02-04T13:50:20;1.88;;;1.77;;
8349;SDS011;60699;48.946;8.412;2024-02-04T13:52:47;1.92;;;1.80;;
8349;SDS011;60699;48.946;8.412;2024-02-04T13:55:14;1.92;;;1.83;;
8349;SDS011;60699;48.946;8.412;2024-02-04T13:57:41;1.90;;;1.80;;
8349;SDS011;60699;48.946;8.412;2024-02-04T14:00:09;1.55;;;1.45;;
8349;SDS011;60699;48.946;8.412;2024-02-04T14:02:36;1.92;;;1.83;;
8349;SDS011;60699;48.946;8.412;2024-02-04T14:05:05;2.25;;;1.80;;
8349;SDS011;60699;48.946;8.412;2024-02-04T14:07:32;1.90;;;1.80;;
8349;SDS011;60699;48.946;8.412;2024-02-04T14:09:59;1.58;;;1.48;;
8349;SDS011;60699;48.946;8.412;2024-02-04T14:12:26;1.63;;;1.52;;
8349;SDS011;60699;48.946;8.412;2024-02-04T14:14:54;1.60;;;1.50;;
8349;SDS011;60699;48.946;8.412;2024-02-04T14:17:21;1.75;;;1.65;;
8349;SDS011;60699;48.946;8.412;2024-02-04T14:19:48;1.40;;;1.30;;
8349;SDS011;60699;48.946;8.412;2024-02-04T14:22:18;1.23;;;1.23;;
8349;SDS011;60699;48.946;8.412;2024-02-04T14:24:47;1.30;;;1.30;;
8349;SDS011;60699;48.946;8.412;2024-02-04T14:27:14;1.30;;;1.20;;
8349;SDS011;60699;48.946;8.412;2024-02-04T14:29:41;1.60;;;1.50;;
8349;SDS011;60699;48.946;8.412;2024-02-04T14:32:08;1.70;;;1.60;;
8349;SDS011;60699;48.946;8.412;2024-02-04T14:34:35;1.75;;;1.65;;
8349;SDS011;60699;48.946;8.412;2024-02-04T14:37:02;1.70;;;1.60;;
8349;SDS011;60699;48.946;8.412;2024-02-04T14:39:30;1.73;;;1.63;;
8349;SDS011;60699;48.946;8.412;2024-02-04T14:41:57;1.15;;;1.10;;
8349;SDS011;60699;48.946;8.412;2024-02-04T14:44:24;1.30;;;1.20;;
8349;SDS011;60699;48.946;8.412;2024-02-04T14:46:51;1.67;;;1.58;;
8349;SDS011;60699;48.946;8.412;2024-02-04T14:49:18;1.23;;;1.13;;
8349;SDS011;60699;48.946;8.412;2024-02-04T14:51:45;1.45;;;1.35;;
8349;SDS011;60699;48.946;8.412;2024-02-04T14:54:12;1.38;;;1.27;;
8349;SDS011;60699;48.946;8.412;2024-02-04T14:56:41;1.80;;;1.65;;
8349;SDS011;60699;48.946;8.412;2024-02-04T14:59:09;1.70;;;1.60;;
8349;SDS011;60699;48.946;8.412;2024-02-04T15:01:36;1.20;;;1.20;;